Time;durP1;ratioP1;P1;durP2;ratioP2;P2;SDS_P1;SDS_P2;PMS_P1;PMS_P2;Temp;Humidity;BMP_temperature;BMP_pressure;BME280_temperature;BME280_humidity;BME280_pressure;Samples;Min_cycle;Max_cycle;Signal;HPM_P1;HPM_P2
2023/06/20 00:01:09;;;;;;;8.88;6.70;;;;;;;26.34;40.25;99638.56;4453408;32;34125;-61
2023/06/20 00:03:37;;;;;;;8.63;6.57;;;;;;;26.34;40.21;99629.53;4453338;32;33911;-61
2023/06/20 00:06:04;;;;;;;9.90;6.28;;;;;;;26.34;40.18;99632.25;4453132;32;33086;-66
2023/06/20 00:08:32;;;;;;;8.15;5.80;;;;;;;26.33;40.13;99636.09;4453581;32;34611;-60
2023/06/20 00:10:59;;;;;;;7.93;5.97;;;;;;;26.32;40.07;99637.16;4453288;32;34011;-66
2023/06/20 00:13:27;;;;;;;7.60;6.37;;;;;;;26.31;40.08;99630.88;4453045;32;34059;-66
2023/06/20 00:15:57;;;;;;;9.65;6.72;;;;;;;26.30;40.12;99637.44;4453511;32;33603;-65
2023/06/20 00:18:25;;;;;;;8.65;6.87;;;;;;;26.29;40.13;99638.47;4453240;32;33849;-66
2023/06/20 00:20:56;;;;;;;9.30;6.45;;;;;;;26.28;40.18;99646.94;4453106;32;33841;-67
2023/06/20 00:23:24;;;;;;;8.15;6.68;;;;;;;26.29;40.20;99640.38;4453277;32;33604;-65
2023/06/20 00:25:52;;;;;;;8.48;6.65;;;;;;;26.28;40.28;99647.78;4453034;32;33501;-64
2023/06/20 00:28:20;;;;;;;8.70;7.12;;;;;;;26.28;40.15;99638.75;4453116;32;34899;-66
2023/06/20 00:30:47;;;;;;;7.62;6.40;;;;;;;26.27;40.15;99639.81;4453142;32;34055;-66
2023/06/20 00:33:18;;;;;;;8.60;6.32;;;;;;;26.26;40.10;99647.22;4453019;32;33748;-67
2023/06/20 00:35:46;;;;;;;9.13;6.55;;;;;;;26.25;40.05;99644.69;4453241;32;33619;-66
2023/06/20 00:38:13;;;;;;;7.60;6.22;;;;;;;26.24;40.03;99649.34;4454130;32;33737;-66
2023/06/20 00:40:41;;;;;;;8.07;6.30;;;;;;;26.24;40.04;99645.78;4484040;32;34281;-66
2023/06/20 00:43:09;;;;;;;8.27;6.37;;;;;;;26.22;40.05;99646.03;4483875;32;35372;-66
2023/06/20 00:45:36;;;;;;;8.30;6.72;;;;;;;26.23;40.09;99638.66;4484320;32;33527;-66
2023/06/20 00:48:05;;;;;;;9.38;7.25;;;;;;;26.23;40.14;99649.59;4483957;32;33977;-66
2023/06/20 00:50:34;;;;;;;9.48;6.85;;;;;;;26.22;40.16;99650.69;4469944;32;34854;-66
2023/06/20 00:53:05;;;;;;;8.50;6.53;;;;;;;26.21;40.19;99647.12;4469980;32;33520;-66
2023/06/20 00:55:34;;;;;;;8.50;6.45;;;;;;;26.19;40.21;99647.34;4484018;32;33507;-67
2023/06/20 00:58:02;;;;;;;9.13;6.75;;;;;;;26.20;40.18;99643.53;4473766;32;34107;-66
2023/06/20 01:00:32;;;;;;;8.95;7.05;;;;;;;26.18;40.19;99645.69;4468401;32;34147;-67
2023/06/20 01:03:13;;;;;;;7.85;6.87;;;;;;;26.17;40.22;99645.97;4468240;32;33725;-66
2023/06/20 01:05:43;;;;;;;9.40;6.87;;;;;;;26.17;40.24;99646.78;4468399;32;33771;-67
2023/06/20 01:08:29;;;;;;;7.32;6.03;;;;;;;26.15;40.32;99646.19;4441654;32;33960;-66
2023/06/20 01:11:22;;;;;;;8.65;6.43;;;;;;;26.16;40.34;99639.66;4441944;32;34170;-66
2023/06/20 01:14:31;;;;;;;7.78;6.43;;;;;;;26.13;40.38;99651.09;4468340;32;33858;-66
2023/06/20 01:17:22;;;;;;;8.27;6.55;;;;;;;26.16;40.34;99658.81;4467516;32;33590;-66
2023/06/20 01:20:05;;;;;;;7.60;6.30;;;;;;;26.13;40.36;99645.63;4454192;32;34943;-66
2023/06/20 01:22:56;;;;;;;8.75;6.95;;;;;;;26.11;40.38;99636.00;4454915;32;34871;-66
2023/06/20 01:25:46;;;;;;;8.20;6.80;;;;;;;26.10;40.35;99653.50;4468216;32;34907;-62
2023/06/20 01:28:41;;;;;;;8.20;6.37;;;;;;;26.07;40.30;99649.34;4468197;32;33201;-66
2023/06/20 01:31:12;;;;;;;7.85;6.18;;;;;;;26.10;40.19;99653.50;4440842;32;34414;-66
2023/06/20 01:33:44;;;;;;;10.95;7.05;;;;;;;26.06;40.23;99647.69;4453966;32;33856;-67
2023/06/20 01:36:11;;;;;;;9.00;6.80;;;;;;;26.04;40.26;99641.63;4453997;32;33938;-65
2023/06/20 01:38:40;;;;;;;8.02;6.18;;;;;;;26.04;40.25;99640.81;4467700;32;34308;-66
2023/06/20 01:41:07;;;;;;;9.27;6.62;;;;;;;26.03;40.28;99648.19;4440962;32;33972;-66
2023/06/20 01:43:35;;;;;;;8.50;6.53;;;;;;;26.02;40.31;99646.53;4441119;32;33759;-66
2023/06/20 01:46:03;;;;;;;9.73;6.97;;;;;;;26.03;40.29;99645.47;4453807;32;34561;-66
2023/06/20 01:48:32;;;;;;;10.25;6.70;;;;;;;26.02;40.26;99652.00;4467950;32;32991;-67
2023/06/20 01:51:00;;;;;;;8.57;7.00;;;;;;;26.01;40.25;99647.59;4441222;32;33843;-66
2023/06/20 01:53:28;;;;;;;7.80;6.82;;;;;;;26.03;40.25;99644.63;4454013;32;34936;-66
2023/06/20 01:56:01;;;;;;;8.25;7.05;;;;;;;26.01;40.29;99641.31;4443661;32;34670;-63
2023/06/20 01:58:30;;;;;;;8.82;6.90;;;;;;;26.01;40.31;99639.41;4430153;32;33798;-66
2023/06/20 02:00:58;;;;;;;9.80;6.40;;;;;;;26.02;40.31;99632.88;4454373;32;34643;-66
2023/06/20 02:03:27;;;;;;;9.02;6.40;;;;;;;26.02;40.32;99641.06;4440210;32;34026;-65
2023/06/20 02:05:58;;;;;;;9.07;7.05;;;;;;;26.00;40.36;99635.00;4439917;32;33931;-65
2023/06/20 02:08:26;;;;;;;11.88;7.37;;;;;;;25.99;40.40;99627.87;4440376;32;33550;-66
2023/06/20 02:10:55;;;;;;;8.75;6.55;;;;;;;25.99;40.41;99635.25;4453985;32;33695;-66
2023/06/20 02:13:23;;;;;;;9.77;7.28;;;;;;;25.98;40.41;99634.44;4439878;32;33710;-66
2023/06/20 02:15:52;;;;;;;8.85;7.07;;;;;;;25.98;40.47;99641.81;4440062;32;33912;-66
2023/06/20 02:18:20;;;;;;;10.57;7.60;;;;;;;25.96;40.53;99639.31;4440248;32;33560;-66
2023/06/20 02:20:53;;;;;;;10.02;7.53;;;;;;;25.98;40.56;99647.28;4427158;32;34806;-66
2023/06/20 02:23:27;;;;;;;10.38;6.72;;;;;;;25.97;40.61;99640.97;4440028;32;33780;-63
2023/06/20 02:25:56;;;;;;;9.77;7.00;;;;;;;25.98;40.57;99642.63;4439862;32;33764;-66
2023/06/20 02:28:24;;;;;;;10.00;7.65;;;;;;;25.97;40.51;99648.34;4453928;32;34316;-65
2023/06/20 02:30:52;;;;;;;9.85;7.37;;;;;;;25.98;40.40;99648.09;4439981;32;33971;-66
2023/06/20 02:33:20;;;;;;;8.57;6.62;;;;;;;25.97;40.36;99648.34;4439795;32;32391;-67
2023/06/20 02:35:50;;;;;;;9.20;7.07;;;;;;;25.95;40.36;99656.78;4440269;32;33832;-65
2023/06/20 02:38:17;;;;;;;10.63;7.50;;;;;;;25.94;40.34;99663.34;4427710;32;33081;-61
2023/06/20 02:40:47;;;;;;;11.32;7.95;;;;;;;25.95;40.31;99665.00;4453933;32;34797;-61
2023/06/20 02:43:14;;;;;;;10.95;7.68;;;;;;;25.93;40.29;99670.72;4439605;32;34948;-61
2023/06/20 02:45:42;;;;;;;9.48;7.50;;;;;;;25.92;40.28;99657.28;4453654;32;34242;-60
2023/06/20 02:48:12;;;;;;;8.57;7.50;;;;;;;25.91;40.26;99655.63;4426937;32;33506;-60
2023/06/20 02:51:07;;;;;;;10.68;7.85;;;;;;;25.89;40.31;99655.06;4440077;32;33641;-60
2023/06/20 02:54:03;;;;;;;11.60;6.68;;;;;;;25.91;40.30;99655.63;4421291;32;32723;-60
2023/06/20 02:56:31;;;;;;;10.20;7.37;;;;;;;25.89;40.31;99653.16;4453997;32;34669;-61
2023/06/20 02:58:59;;;;;;;9.68;6.93;;;;;;;25.86;40.37;99650.91;4455344;32;34358;-62
2023/06/20 03:01:26;;;;;;;11.80;7.07;;;;;;;25.85;40.41;99653.88;4455362;32;34770;-61
2023/06/20 03:03:57;;;;;;;8.73;7.43;;;;;;;25.84;40.47;99657.69;4442926;32;33502;-60
2023/06/20 03:06:27;;;;;;;9.13;7.00;;;;;;;25.83;40.49;99667.78;4442365;32;34623;-66
2023/06/20 03:08:59;;;;;;;8.73;7.47;;;;;;;25.81;40.52;99667.22;4455689;32;34199;-61
2023/06/20 03:11:28;;;;;;;8.55;7.00;;;;;;;25.81;40.53;99666.37;4455613;32;34675;-65
2023/06/20 03:13:56;;;;;;;10.27;7.50;;;;;;;25.81;40.53;99667.22;4454931;32;33791;-67
2023/06/20 03:16:26;;;;;;;11.35;7.15;;;;;;;25.80;40.56;99668.28;4469044;32;34079;-67
2023/06/20 03:18:54;;;;;;;9.52;7.82;;;;;;;25.80;40.60;99672.94;4469179;32;32649;-67
2023/06/20 03:21:24;;;;;;;10.10;6.60;;;;;;;25.79;40.61;99674.84;4469373;32;33620;-66
2023/06/20 03:23:56;;;;;;;9.38;7.50;;;;;;;25.81;40.60;99674.59;4469187;32;34406;-65
2023/06/20 03:26:24;;;;;;;9.90;7.43;;;;;;;25.80;40.62;99675.66;4455121;32;33942;-62
2023/06/20 03:28:52;;;;;;;9.55;7.80;;;;;;;25.79;40.64;99685.78;4469411;32;33106;-60
2023/06/20 03:31:20;;;;;;;11.02;6.95;;;;;;;25.79;40.67;99690.41;4469118;32;34843;-61
2023/06/20 03:33:47;;;;;;;11.20;7.60;;;;;;;25.78;40.66;99686.00;4469417;32;34497;-63
2023/06/20 03:36:15;;;;;;;8.77;6.95;;;;;;;25.79;40.72;99693.12;4469045;32;33893;-62
2023/06/20 03:38:43;;;;;;;12.05;7.43;;;;;;;25.78;40.75;99688.72;4469194;32;33448;-61
2023/06/20 03:41:11;;;;;;;8.57;7.18;;;;;;;25.78;40.76;99686.00;4469280;32;33712;-60
2023/06/20 03:43:40;;;;;;;9.52;7.65;;;;;;;25.77;40.80;99698.81;4469239;32;33768;-62
2023/06/20 03:46:08;;;;;;;8.93;7.40;;;;;;;25.79;40.84;99704.06;4468808;32;33488;-60
2023/06/20 03:48:36;;;;;;;9.32;7.53;;;;;;;25.77;40.89;99696.09;4468925;32;33572;-60
2023/06/20 03:51:04;;;;;;;9.30;6.62;;;;;;;25.76;40.97;99705.38;4469123;32;33756;-65
2023/06/20 03:53:32;;;;;;;12.95;7.32;;;;;;;25.75;41.02;99700.97;4468998;32;33535;-65
2023/06/20 03:56:02;;;;;;;9.80;7.37;;;;;;;25.76;41.07;99699.09;4469191;32;33535;-66
2023/06/20 03:58:30;;;;;;;10.88;8.07;;;;;;;25.76;41.07;99704.56;4455481;32;33483;-66
2023/06/20 04:00:59;;;;;;;10.50;7.35;;;;;;;25.75;41.12;99700.97;4453607;32;34089;-61
2023/06/20 04:03:28;;;;;;;9.70;6.95;;;;;;;25.75;41.13;99695.50;4453546;32;34867;-61
2023/06/20 04:06:01;;;;;;;8.55;6.93;;;;;;;25.75;41.17;99702.88;4453079;32;34576;-60
2023/06/20 04:08:29;;;;;;;10.07;7.43;;;;;;;25.75;41.20;99709.16;4453320;32;34312;-61
2023/06/20 04:10:58;;;;;;;10.55;7.18;;;;;;;25.75;41.21;99705.59;4453465;32;33953;-61
2023/06/20 04:13:27;;;;;;;9.60;7.23;;;;;;;25.75;41.25;99698.22;4453273;32;34104;-61
2023/06/20 04:15:55;;;;;;;10.43;7.25;;;;;;;25.77;41.29;99692.53;4453185;32;33988;-65
2023/06/20 04:18:23;;;;;;;9.88;7.68;;;;;;;25.76;41.35;99696.34;4452858;32;34341;-61
2023/06/20 04:20:50;;;;;;;9.30;7.80;;;;;;;25.76;41.40;99685.41;4439380;32;33926;-63
2023/06/20 04:23:18;;;;;;;9.38;7.37;;;;;;;25.76;41.37;99691.72;4453104;32;33569;-60
2023/06/20 04:25:46;;;;;;;8.02;7.20;;;;;;;25.76;41.44;99683.50;4453099;32;33890;-61
2023/06/20 04:28:17;;;;;;;10.57;7.85;;;;;;;25.76;41.46;99685.41;4452907;32;33350;-66
2023/06/20 04:30:46;;;;;;;9.65;7.30;;;;;;;25.77;41.51;99681.59;4453426;32;33817;-66
2023/06/20 04:33:13;;;;;;;9.27;7.35;;;;;;;25.76;41.53;99686.25;4453226;32;33670;-66
2023/06/20 04:35:41;;;;;;;9.10;7.20;;;;;;;25.77;41.58;99692.53;4453164;32;33732;-66
2023/06/20 04:38:10;;;;;;;11.38;7.28;;;;;;;25.77;41.63;99689.81;4453269;32;33455;-67
2023/06/20 04:40:37;;;;;;;11.35;7.55;;;;;;;25.78;41.71;99696.91;4452893;32;34641;-64
2023/06/20 04:43:04;;;;;;;10.52;7.43;;;;;;;25.79;41.76;99695.87;4452932;32;33768;-64
2023/06/20 04:45:32;;;;;;;9.57;7.47;;;;;;;25.79;41.73;99701.34;4452913;32;33933;-59
2023/06/20 04:48:02;;;;;;;10.32;7.22;;;;;;;25.79;41.74;99699.44;4452979;32;33540;-61
2023/06/20 04:50:29;;;;;;;12.07;7.87;;;;;;;25.80;41.73;99701.09;4452895;32;34630;-61
2023/06/20 04:52:57;;;;;;;9.90;7.62;;;;;;;25.81;41.73;99694.53;4452820;32;34025;-60
2023/06/20 04:55:26;;;;;;;8.60;7.65;;;;;;;25.81;41.82;99700.00;4452847;32;33418;-61
2023/06/20 04:57:54;;;;;;;9.30;7.37;;;;;;;25.82;41.90;99698.91;4462170;32;34353;-61
2023/06/20 05:00:22;;;;;;;10.93;8.25;;;;;;;25.82;41.96;99704.37;4468439;32;34045;-60
2023/06/20 05:02:51;;;;;;;9.40;7.90;;;;;;;25.83;41.97;99705.22;4468415;32;34797;-61
2023/06/20 05:05:19;;;;;;;11.68;8.20;;;;;;;25.83;42.00;99703.31;4468280;32;34721;-60
2023/06/20 05:07:47;;;;;;;9.65;7.82;;;;;;;25.83;42.07;99706.03;4468354;32;33596;-61
2023/06/20 05:10:15;;;;;;;9.43;7.68;;;;;;;25.84;42.21;99713.19;4468453;32;33561;-63
2023/06/20 05:12:42;;;;;;;13.95;8.10;;;;;;;25.84;42.21;99712.37;4468173;32;34754;-60
2023/06/20 05:15:10;;;;;;;10.48;8.15;;;;;;;25.84;42.22;99710.47;4468214;32;33879;-61
2023/06/20 05:17:37;;;;;;;10.70;8.38;;;;;;;25.85;42.14;99712.09;4468042;32;34114;-61
2023/06/20 05:20:06;;;;;;;10.65;8.00;;;;;;;25.86;42.11;99712.94;4468159;32;35042;-63
2023/06/20 05:22:34;;;;;;;9.30;8.03;;;;;;;25.86;42.05;99710.19;4468166;32;34468;-61
2023/06/20 05:25:02;;;;;;;9.70;7.53;;;;;;;25.88;42.03;99710.78;4467902;32;33776;-66
2023/06/20 05:27:31;;;;;;;13.02;8.43;;;;;;;25.88;42.03;99710.78;4468078;32;33459;-61
2023/06/20 05:29:58;;;;;;;10.10;8.15;;;;;;;25.88;42.02;99710.78;4469449;32;33879;-64
2023/06/20 05:32:26;;;;;;;9.27;7.82;;;;;;;25.88;41.99;99711.63;4469866;32;33799;-62
2023/06/20 05:34:54;;;;;;;11.25;7.62;;;;;;;25.89;41.98;99712.47;4469968;32;33745;-62
2023/06/20 05:37:23;;;;;;;9.93;8.15;;;;;;;25.90;41.99;99716.84;4470077;32;33924;-64
2023/06/20 05:39:50;;;;;;;9.15;7.47;;;;;;;25.90;41.98;99711.37;4470051;32;33730;-64
2023/06/20 05:42:18;;;;;;;9.20;7.53;;;;;;;25.90;42.00;99725.88;4471840;32;34004;-66
2023/06/20 05:44:45;;;;;;;11.48;7.40;;;;;;;25.92;42.03;99720.16;4479878;32;33892;-66
2023/06/20 05:47:17;;;;;;;11.02;8.50;;;;;;;25.92;42.07;99726.44;4471660;32;33492;-66
2023/06/20 05:49:45;;;;;;;11.18;8.18;;;;;;;25.94;42.14;99731.69;4469601;32;34652;-63
2023/06/20 05:52:14;;;;;;;10.90;7.93;;;;;;;25.94;42.17;99731.69;4469578;32;34909;-67
2023/06/20 05:54:43;;;;;;;9.20;7.72;;;;;;;25.95;42.21;99730.59;4455914;32;34007;-66
2023/06/20 05:57:11;;;;;;;9.07;7.28;;;;;;;25.94;42.29;99726.22;4451227;32;33251;-61
2023/06/20 05:59:39;;;;;;;10.38;7.80;;;;;;;25.95;42.33;99725.97;4460505;32;34042;-61
2023/06/20 06:02:06;;;;;;;10.70;7.53;;;;;;;25.97;42.39;99727.63;4469989;32;34082;-60
2023/06/20 06:04:34;;;;;;;10.35;7.62;;;;;;;25.98;42.42;99726.56;4469351;32;35015;-62
2023/06/20 06:07:07;;;;;;;10.52;7.72;;;;;;;25.98;42.43;99730.12;4469621;32;33426;-60
2023/06/20 06:09:35;;;;;;;10.55;7.95;;;;;;;25.99;42.56;99734.50;4469558;32;34751;-60
2023/06/20 06:12:03;;;;;;;9.27;7.32;;;;;;;26.02;42.81;99738.62;4469600;32;34008;-61
2023/06/20 06:14:30;;;;;;;12.20;7.75;;;;;;;26.02;42.90;99733.19;4469465;32;34089;-63
2023/06/20 06:16:58;;;;;;;11.15;8.10;;;;;;;26.04;42.96;99736.50;4469540;32;34465;-61
2023/06/20 06:19:26;;;;;;;9.65;7.68;;;;;;;26.05;43.05;99739.00;4469513;32;33684;-61
2023/06/20 06:21:53;;;;;;;9.68;7.45;;;;;;;26.07;43.23;99730.56;4469341;32;34048;-60
2023/06/20 06:24:21;;;;;;;11.43;7.37;;;;;;;26.08;43.15;99730.31;4469361;32;34866;-66
2023/06/20 06:26:49;;;;;;;11.38;7.72;;;;;;;26.09;43.11;99742.91;4469600;32;33134;-61
2023/06/20 06:29:18;;;;;;;11.38;7.65;;;;;;;26.09;43.14;99745.62;4469549;32;34531;-61
2023/06/20 06:31:45;;;;;;;10.25;7.47;;;;;;;26.12;43.14;99755.25;4469381;32;33987;-65
2023/06/20 06:34:16;;;;;;;9.75;7.07;;;;;;;26.12;43.18;99750.63;4469670;32;34137;-62
2023/06/20 06:36:44;;;;;;;10.43;6.90;;;;;;;26.12;43.11;99755.25;4469481;32;34190;-61
2023/06/20 06:39:12;;;;;;;10.25;6.85;;;;;;;26.11;43.03;99757.16;4469049;32;33565;-66
2023/06/20 06:41:40;;;;;;;9.23;7.10;;;;;;;26.12;42.94;99745.16;4455198;32;34900;-64
2023/06/20 06:44:07;;;;;;;9.80;7.72;;;;;;;26.12;42.87;99753.34;4469334;32;33944;-64
2023/06/20 06:46:35;;;;;;;9.02;7.68;;;;;;;26.13;42.86;99755.00;4455278;32;34262;-61
2023/06/20 06:49:03;;;;;;;8.52;6.85;;;;;;;26.13;42.87;99751.44;4469081;32;34652;-64
2023/06/20 06:51:30;;;;;;;10.88;6.20;;;;;;;26.13;42.84;99754.19;4469325;32;33916;-63
2023/06/20 06:53:58;;;;;;;9.90;7.28;;;;;;;26.14;42.85;99753.09;4477578;32;34944;-64
2023/06/20 06:56:25;;;;;;;10.43;7.70;;;;;;;26.13;42.87;99754.19;4484785;32;33693;-63
2023/06/20 06:59:00;;;;;;;9.00;6.85;;;;;;;26.15;42.84;99754.75;4438993;32;32446;-63
2023/06/20 07:01:28;;;;;;;9.38;7.12;;;;;;;26.15;42.82;99750.09;4453726;32;33549;-64
2023/06/20 07:03:56;;;;;;;8.45;6.40;;;;;;;26.15;42.82;99746.53;4453233;32;33872;-63
2023/06/20 07:06:24;;;;;;;11.30;7.07;;;;;;;26.17;42.83;99744.41;4453709;32;34433;-63
2023/06/20 07:08:55;;;;;;;9.07;6.90;;;;;;;26.17;42.86;99758.91;4453745;32;34006;-63
2023/06/20 07:11:24;;;;;;;9.38;7.35;;;;;;;26.17;42.92;99750.72;4453436;32;33967;-63
2023/06/20 07:13:52;;;;;;;8.30;7.37;;;;;;;26.17;42.91;99761.66;4460639;32;33647;-64
2023/06/20 07:16:19;;;;;;;11.65;7.12;;;;;;;26.19;42.93;99762.22;4469319;32;34237;-65
2023/06/20 07:18:47;;;;;;;9.27;6.75;;;;;;;26.19;43.04;99764.94;4477279;32;34620;-66
2023/06/20 07:21:16;;;;;;;14.85;7.20;;;;;;;26.20;43.07;99774.81;4476018;32;34013;-65
2023/06/20 07:23:44;;;;;;;11.27;7.35;;;;;;;26.22;43.02;99769.12;4476196;32;34748;-65
2023/06/20 07:26:11;;;;;;;11.50;7.30;;;;;;;26.22;42.97;99773.75;4477291;32;33115;-64
2023/06/20 07:28:39;;;;;;;10.98;6.95;;;;;;;26.22;42.96;99776.50;4476351;32;34162;-62
2023/06/20 07:31:07;;;;;;;11.52;6.20;;;;;;;26.23;42.92;99780.87;4475665;32;34863;-66
2023/06/20 07:33:34;;;;;;;10.18;6.60;;;;;;;26.24;42.92;99774.31;4473583;32;33983;-66
2023/06/20 07:36:02;;;;;;;10.88;7.07;;;;;;;26.24;42.89;99785.28;4473013;32;32171;-66
2023/06/20 07:38:30;;;;;;;9.90;7.10;;;;;;;26.25;42.87;99779.53;4475407;32;34040;-66
2023/06/20 07:40:59;;;;;;;9.43;7.20;;;;;;;26.26;42.86;99774.94;4475876;32;33615;-66
2023/06/20 07:43:27;;;;;;;9.90;6.80;;;;;;;26.28;42.84;99786.44;4474589;32;34532;-65
2023/06/20 07:45:55;;;;;;;11.23;7.37;;;;;;;26.29;42.80;99788.91;4472954;32;33618;-62
2023/06/20 07:48:27;;;;;;;9.75;6.40;;;;;;;26.30;42.82;99776.06;4473839;32;33979;-62
2023/06/20 07:50:55;;;;;;;9.48;6.70;;;;;;;26.30;42.78;99776.06;4467847;32;33872;-61
2023/06/20 07:53:23;;;;;;;12.73;7.47;;;;;;;26.31;42.73;99780.50;4477681;32;34641;-65
2023/06/20 07:55:51;;;;;;;10.75;7.28;;;;;;;26.31;42.72;99784.06;4481899;32;33356;-62
2023/06/20 07:58:19;;;;;;;12.55;7.05;;;;;;;26.32;42.70;99793.09;4472262;32;34789;-66
2023/06/20 08:00:47;;;;;;;10.93;6.82;;;;;;;26.33;42.65;99787.34;4468680;32;34829;-65
2023/06/20 08:03:14;;;;;;;11.05;7.60;;;;;;;26.33;42.61;99784.62;4468922;32;33797;-63
2023/06/20 08:05:42;;;;;;;9.48;6.97;;;;;;;26.32;42.57;99788.44;4475029;32;33667;-66
2023/06/20 08:08:10;;;;;;;9.93;6.45;;;;;;;26.33;42.56;99786.53;4456787;32;33843;-66
2023/06/20 08:10:37;;;;;;;11.05;7.40;;;;;;;26.32;42.54;99787.63;4474625;32;34695;-65
2023/06/20 08:13:05;;;;;;;9.45;7.10;;;;;;;26.33;42.50;99792.00;4469040;32;34760;-63
2023/06/20 08:15:32;;;;;;;9.25;7.00;;;;;;;26.32;42.49;99796.66;4474902;32;33903;-62
2023/06/20 08:18:00;;;;;;;10.18;6.93;;;;;;;26.32;42.43;99790.34;4477924;32;34022;-65
2023/06/20 08:20:28;;;;;;;11.15;6.97;;;;;;;26.33;42.42;99783.78;4466696;32;34928;-61
2023/06/20 08:22:55;;;;;;;8.23;6.32;;;;;;;26.34;42.50;99783.53;4467175;32;34500;-65
2023/06/20 08:25:23;;;;;;;10.38;6.85;;;;;;;26.34;42.48;99786.28;4468131;32;33125;-64
2023/06/20 08:27:51;;;;;;;9.52;6.65;;;;;;;26.34;42.45;99786.28;4468157;32;33989;-64
2023/06/20 08:30:36;;;;;;;10.65;6.30;;;;;;;26.35;42.45;99792.59;4482374;32;34817;-64
2023/06/20 08:33:04;;;;;;;13.82;6.70;;;;;;;26.35;42.41;99787.97;4483539;32;34309;-65
2023/06/20 08:35:32;;;;;;;8.75;6.55;;;;;;;26.35;42.38;99787.13;4484173;32;33728;-63
2023/06/20 08:37:59;;;;;;;10.95;6.45;;;;;;;26.34;42.36;99783.53;4484579;32;34103;-60
2023/06/20 08:40:28;;;;;;;10.23;6.40;;;;;;;26.35;42.34;99784.41;4484545;32;33983;-64
2023/06/20 08:42:56;;;;;;;8.93;6.03;;;;;;;26.35;42.32;99781.66;4484060;32;33635;-64
2023/06/20 08:45:25;;;;;;;11.10;5.97;;;;;;;26.34;42.26;99780.81;4484279;32;33537;-62
2023/06/20 08:47:58;;;;;;;12.80;5.97;;;;;;;26.35;42.25;99784.41;4470113;32;34238;-64
2023/06/20 08:50:26;;;;;;;8.23;6.32;;;;;;;26.33;42.25;99775.59;4482401;32;33889;-64
2023/06/20 08:52:55;;;;;;;11.15;6.72;;;;;;;26.35;42.21;99778.94;4483600;32;33916;-64
2023/06/20 08:55:23;;;;;;;10.82;6.45;;;;;;;26.34;42.20;99778.06;4484121;32;33067;-65
2023/06/20 08:57:51;;;;;;;12.13;6.62;;;;;;;26.34;42.17;99775.34;4461006;32;33936;-65
2023/06/20 09:00:20;;;;;;;8.85;6.22;;;;;;;26.35;42.14;99776.19;4468501;32;34071;-64
2023/06/20 09:02:51;;;;;;;9.45;6.28;;;;;;;26.35;42.13;99781.66;4468024;32;33957;-62
2023/06/20 09:05:20;;;;;;;12.90;6.95;;;;;;;26.35;42.12;99776.19;4468301;32;33537;-65
2023/06/20 09:07:47;;;;;;;10.48;6.62;;;;;;;26.36;42.08;99775.09;4468640;32;33953;-64
2023/06/20 09:10:18;;;;;;;9.45;6.15;;;;;;;26.35;42.07;99776.19;4468226;32;33702;-61
2023/06/20 09:12:49;;;;;;;9.15;6.47;;;;;;;26.34;42.08;99771.78;4468634;32;33578;-64
2023/06/20 09:15:21;;;;;;;8.60;5.93;;;;;;;26.34;42.04;99778.06;4468234;32;34352;-65
2023/06/20 09:17:50;;;;;;;9.23;6.87;;;;;;;26.34;42.02;99778.06;4468296;32;34729;-63
2023/06/20 09:20:17;;;;;;;9.73;6.70;;;;;;;26.35;42.00;99770.72;4472152;32;34031;-65
2023/06/20 09:22:45;;;;;;;9.93;6.65;;;;;;;26.34;42.00;99772.59;4480912;32;34254;-63
2023/06/20 09:25:16;;;;;;;8.38;6.35;;;;;;;26.34;41.99;99772.59;4483745;32;33704;-65
2023/06/20 09:27:44;;;;;;;7.78;5.85;;;;;;;26.33;41.98;99779.16;4457160;32;33412;-61
2023/06/20 09:30:14;;;;;;;8.65;6.20;;;;;;;26.35;41.94;99773.44;4471931;32;34957;-63
2023/06/20 09:32:42;;;;;;;9.15;6.37;;;;;;;26.34;41.97;99777.25;4468003;32;34004;-64
2023/06/20 09:35:18;;;;;;;9.45;6.45;;;;;;;26.34;41.94;99777.25;4473693;32;33622;-61
2023/06/20 09:37:47;;;;;;;9.70;6.28;;;;;;;26.36;41.92;99780.56;4447381;32;34000;-61
2023/06/20 09:40:19;;;;;;;8.60;6.27;;;;;;;26.36;41.91;99777.84;4465879;32;34082;-62
2023/06/20 09:42:47;;;;;;;12.23;7.03;;;;;;;26.35;41.88;99777.00;4466560;32;33626;-62
2023/06/20 09:45:15;;;;;;;10.98;6.07;;;;;;;26.35;41.87;99778.94;4466867;32;33986;-62
2023/06/20 09:47:43;;;;;;;8.13;6.43;;;;;;;26.34;41.88;99778.06;4466496;32;33819;-62
2023/06/20 09:50:19;;;;;;;10.95;6.20;;;;;;;26.35;41.86;99777.00;4452171;32;33471;-61
2023/06/20 09:52:51;;;;;;;8.60;6.10;;;;;;;26.35;41.87;99784.41;4465817;32;34069;-65
2023/06/20 09:55:18;;;;;;;9.63;5.97;;;;;;;26.34;41.87;99786.28;4452730;32;33923;-61
2023/06/20 09:58:05;;;;;;;9.95;6.25;;;;;;;26.35;41.82;99781.66;4453443;32;32922;-61
2023/06/20 10:00:32;;;;;;;8.32;6.28;;;;;;;26.39;41.78;99788.28;4467309;32;33892;-62
2023/06/20 10:03:02;;;;;;;8.32;6.57;;;;;;;26.35;41.78;99785.22;4453271;32;34139;-61
2023/06/20 10:05:29;;;;;;;7.85;5.82;;;;;;;26.35;41.78;99779.75;4445933;32;34221;-64
2023/06/20 10:08:00;;;;;;;9.73;5.87;;;;;;;26.36;41.76;99778.66;4455983;32;34073;-62
2023/06/20 10:10:27;;;;;;;7.82;5.55;;;;;;;26.36;41.78;99780.56;4482922;32;34079;-65
2023/06/20 10:12:55;;;;;;;8.80;6.28;;;;;;;26.35;41.78;99777.00;4482902;32;34473;-64
2023/06/20 10:15:23;;;;;;;7.70;5.82;;;;;;;26.35;41.77;99774.28;4483869;32;33172;-64
2023/06/20 10:17:51;;;;;;;8.13;6.00;;;;;;;26.35;41.78;99768.81;4471292;32;33801;-66
2023/06/20 10:20:33;;;;;;;10.27;6.18;;;;;;;26.35;41.77;99765.25;4485136;32;34005;-61
2023/06/20 10:23:05;;;;;;;9.77;6.05;;;;;;;26.37;41.74;99772.13;4484983;32;34016;-60
2023/06/20 10:25:33;;;;;;;7.60;5.78;;;;;;;26.35;41.77;99770.72;4484746;32;34181;-65
2023/06/20 10:28:04;;;;;;;8.15;6.28;;;;;;;26.34;41.74;99764.37;4463232;32;33967;-58
2023/06/20 11:25:19;;;;;;;8.13;5.40;;;;;;;26.28;41.83;99735.31;5199606;27;20045;-63
2023/06/20 11:27:47;;;;;;;9.10;5.82;;;;;;;26.28;41.81;99732.56;4333232;33;31473;-66
2023/06/20 11:30:15;;;;;;;7.78;5.68;;;;;;;26.29;41.81;99725.19;4347084;33;33848;-73
2023/06/20 11:33:06;;;;;;;9.18;5.97;;;;;;;26.30;41.80;99735.03;4333771;33;33576;-73
2023/06/20 11:35:54;;;;;;;10.60;6.15;;;;;;;26.32;41.74;99721.97;4347024;33;33601;-65
2023/06/20 11:38:26;;;;;;;10.00;6.10;;;;;;;26.34;41.70;99717.06;4332063;33;33491;-69
2023/06/20 11:41:07;;;;;;;10.88;5.75;;;;;;;26.30;41.74;99727.69;4338774;33;33854;-64
2023/06/20 11:43:39;;;;;;;9.23;5.87;;;;;;;26.34;41.70;99731.56;4328929;33;33906;-62
2023/06/20 11:46:08;;;;;;;11.65;5.72;;;;;;;26.32;41.72;99727.44;4344470;33;33587;-65
2023/06/20 11:48:35;;;;;;;10.75;5.65;;;;;;;26.32;41.70;99719.22;4306562;33;33533;-69
2023/06/20 11:51:05;;;;;;;9.13;5.12;;;;;;;26.32;41.67;99720.06;4306649;33;33923;-74
2023/06/20 11:53:35;;;;;;;9.70;5.57;;;;;;;26.33;41.68;99718.16;4297292;33;33317;-70
2023/06/20 11:56:07;;;;;;;8.77;5.70;;;;;;;26.33;41.67;99712.69;4307199;33;34092;-68
2023/06/20 11:58:39;;;;;;;12.23;6.07;;;;;;;26.33;41.60;99710.75;4316531;33;33049;-68
2023/06/20 12:01:13;;;;;;;11.67;6.60;;;;;;;26.34;41.76;99720.63;4305187;33;33823;-67
2023/06/20 12:03:42;;;;;;;12.52;6.72;;;;;;;26.34;42.13;99723.34;4321463;33;33643;-67
2023/06/20 12:06:27;;;;;;;12.75;7.40;;;;;;;26.37;42.39;99722.03;4324923;33;34798;-67
2023/06/20 12:08:57;;;;;;;10.40;6.25;;;;;;;26.44;42.66;99720.03;4319267;33;34374;-68
2023/06/20 12:11:25;;;;;;;10.88;6.60;;;;;;;26.43;42.87;99712.88;4314155;33;33925;-68
2023/06/20 12:13:53;;;;;;;14.65;7.90;;;;;;;26.44;42.97;99706.34;4319977;33;33728;-68
2023/06/20 12:16:21;;;;;;;15.82;7.82;;;;;;;26.47;43.13;99718.69;4331546;33;33665;-67
2023/06/20 12:18:52;;;;;;;11.35;7.45;;;;;;;26.50;43.17;99709.97;4307988;33;33540;-68
2023/06/20 12:21:20;;;;;;;13.90;7.25;;;;;;;26.50;43.31;99708.06;4337913;33;34742;-68
2023/06/20 12:23:48;;;;;;;11.30;6.95;;;;;;;26.51;43.26;99706.16;4332165;33;33960;-67
2023/06/20 12:26:15;;;;;;;14.48;7.15;;;;;;;26.53;43.23;99699.34;4329718;33;33985;-66
2023/06/20 12:28:43;;;;;;;11.50;7.18;;;;;;;26.55;43.29;99699.94;4316122;33;33356;-67
2023/06/20 12:31:12;;;;;;;9.18;6.75;;;;;;;26.56;43.31;99698.84;4304176;33;32932;-66
2023/06/20 12:33:39;;;;;;;10.30;6.75;;;;;;;26.58;43.29;99693.97;4331546;33;34818;-69
2023/06/20 12:36:08;;;;;;;10.98;7.00;;;;;;;26.59;43.31;99689.34;4333927;33;33842;-68